sensor_id;sensor_type;location;lat;lon;timestamp;temperature;humidity
48328;DHT22;34136;51.022;7.082;2022-09-09T00:05:23;18.00;5.20
48328;DHT22;34136;51.022;7.082;2022-09-09T00:08:20;18.10;5.50
48328;DHT22;34136;51.022;7.082;2022-09-09T00:11:11;18.10;5.40
48328;DHT22;34136;51.022;7.082;2022-09-09T00:14:00;18.10;5.10
48328;DHT22;34136;51.022;7.082;2022-09-09T00:16:56;18.10;4.60
48328;DHT22;34136;51.022;7.082;2022-09-09T00:22:33;18.10;4.60
48328;DHT22;34136;51.022;7.082;2022-09-09T00:25:40;18.10;5.40
48328;DHT22;34136;51.022;7.082;2022-09-09T00:28:28;18.10;4.50
48328;DHT22;34136;51.022;7.082;2022-09-09T00:31:23;18.10;5.00
48328;DHT22;34136;51.022;7.082;2022-09-09T00:34:13;18.10;4.10
48328;DHT22;34136;51.022;7.082;2022-09-09T00:37:02;18.10;3.90
48328;DHT22;34136;51.022;7.082;2022-09-09T00:39:50;18.10;4.50
48328;DHT22;34136;51.022;7.082;2022-09-09T00:42:44;18.10;3.90
48328;DHT22;34136;51.022;7.082;2022-09-09T00:45:45;18.10;3.80
48328;DHT22;34136;51.022;7.082;2022-09-09T00:58:00;17.90;4.50
48328;DHT22;34136;51.022;7.082;2022-09-09T01:03:53;17.90;4.60
48328;DHT22;34136;51.022;7.082;2022-09-09T01:06:39;17.90;4.20
48328;DHT22;34136;51.022;7.082;2022-09-09T01:09:50;17.80;4.20
48328;DHT22;34136;51.022;7.082;2022-09-09T01:12:47;17.80;4.60
48328;DHT22;34136;51.022;7.082;2022-09-09T01:15:39;17.80;4.20
48328;DHT22;34136;51.022;7.082;2022-09-09T01:18:32;17.80;4.40
48328;DHT22;34136;51.022;7.082;2022-09-09T01:21:41;17.70;4.50
48328;DHT22;34136;51.022;7.082;2022-09-09T01:24:40;17.80;4.10
48328;DHT22;34136;51.022;7.082;2022-09-09T01:27:37;17.80;5.40
48328;DHT22;34136;51.022;7.082;2022-09-09T01:30:26;17.70;4.90
48328;DHT22;34136;51.022;7.082;2022-09-09T01:33:16;17.70;4.50
48328;DHT22;34136;51.022;7.082;2022-09-09T01:36:08;17.60;5.00
48328;DHT22;34136;51.022;7.082;2022-09-09T01:39:04;17.60;4.30
48328;DHT22;34136;51.022;7.082;2022-09-09T01:41:51;17.70;4.30
48328;DHT22;34136;51.022;7.082;2022-09-09T01:44:39;17.60;4.60
48328;DHT22;34136;51.022;7.082;2022-09-09T01:47:25;17.60;5.00
48328;DHT22;34136;51.022;7.082;2022-09-09T01:50:21;17.70;4.10
48328;DHT22;34136;51.022;7.082;2022-09-09T01:53:08;17.50;4.50
48328;DHT22;34136;51.022;7.082;2022-09-09T02:02:11;17.50;4.70
48328;DHT22;34136;51.022;7.082;2022-09-09T02:08:26;17.40;4.70
48328;DHT22;34136;51.022;7.082;2022-09-09T02:11:24;17.50;5.10
48328;DHT22;34136;51.022;7.082;2022-09-09T02:14:27;17.50;4.60
48328;DHT22;34136;51.022;7.082;2022-09-09T02:17:22;17.60;4.20
48328;DHT22;34136;51.022;7.082;2022-09-09T02:20:21;17.50;4.30
48328;DHT22;34136;51.022;7.082;2022-09-09T02:23:14;17.50;4.30
48328;DHT22;34136;51.022;7.082;2022-09-09T02:26:03;17.50;4.60
48328;DHT22;34136;51.022;7.082;2022-09-09T02:28:50;17.50;4.30
48328;DHT22;34136;51.022;7.082;2022-09-09T02:31:39;17.50;4.10
48328;DHT22;34136;51.022;7.082;2022-09-09T02:34:36;17.50;4.10
48328;DHT22;34136;51.022;7.082;2022-09-09T02:37:39;17.50;4.10
48328;DHT22;34136;51.022;7.082;2022-09-09T02:40:26;17.50;4.10
48328;DHT22;34136;51.022;7.082;2022-09-09T02:43:20;17.40;4.50
48328;DHT22;34136;51.022;7.082;2022-09-09T02:46:29;17.50;4.40
48328;DHT22;34136;51.022;7.082;2022-09-09T02:49:21;17.60;4.20
48328;DHT22;34136;51.022;7.082;2022-09-09T02:52:15;17.50;3.90
48328;DHT22;34136;51.022;7.082;2022-09-09T02:55:15;17.50;4.40
48328;DHT22;34136;51.022;7.082;2022-09-09T02:58:09;17.50;4.20
48328;DHT22;34136;51.022;7.082;2022-09-09T03:00:57;17.40;4.50
48328;DHT22;34136;51.022;7.082;2022-09-09T03:03:43;17.40;4.80
48328;DHT22;34136;51.022;7.082;2022-09-09T03:06:34;17.50;4.80
48328;DHT22;34136;51.022;7.082;2022-09-09T03:09:30;17.40;5.00
48328;DHT22;34136;51.022;7.082;2022-09-09T03:12:17;17.40;4.90
48328;DHT22;34136;51.022;7.082;2022-09-09T03:15:03;17.40;5.00
48328;DHT22;34136;51.022;7.082;2022-09-09T03:17:49;17.40;5.10
48328;DHT22;34136;51.022;7.082;2022-09-09T03:20:36;17.40;5.20
48328;DHT22;34136;51.022;7.082;2022-09-09T03:23:22;17.40;5.10
48328;DHT22;34136;51.022;7.082;2022-09-09T03:26:10;17.30;5.10
48328;DHT22;34136;51.022;7.082;2022-09-09T03:29:04;17.30;5.50
48328;DHT22;34136;51.022;7.082;2022-09-09T03:31:50;17.40;5.20
48328;DHT22;34136;51.022;7.082;2022-09-09T03:34:37;17.40;5.00
48328;DHT22;34136;51.022;7.082;2022-09-09T03:37:23;17.30;5.00
48328;DHT22;34136;51.022;7.082;2022-09-09T03:40:11;17.40;5.00
48328;DHT22;34136;51.022;7.082;2022-09-09T03:42:58;17.40;5.00
48328;DHT22;34136;51.022;7.082;2022-09-09T03:45:48;17.40;4.80
48328;DHT22;34136;51.022;7.082;2022-09-09T03:48:35;17.50;4.60
48328;DHT22;34136;51.022;7.082;2022-09-09T03:51:21;17.30;4.90
48328;DHT22;34136;51.022;7.082;2022-09-09T03:54:08;17.40;5.20
48328;DHT22;34136;51.022;7.082;2022-09-09T03:56:55;17.40;4.60
48328;DHT22;34136;51.022;7.082;2022-09-09T03:59:43;17.50;4.30
48328;DHT22;34136;51.022;7.082;2022-09-09T04:02:29;17.40;4.00
48328;DHT22;34136;51.022;7.082;2022-09-09T04:05:16;17.40;4.50
48328;DHT22;34136;51.022;7.082;2022-09-09T04:08:04;17.40;4.00
48328;DHT22;34136;51.022;7.082;2022-09-09T04:10:51;17.50;4.00
48328;DHT22;34136;51.022;7.082;2022-09-09T04:13:38;17.50;3.70
48328;DHT22;34136;51.022;7.082;2022-09-09T04:16:24;17.50;3.70
48328;DHT22;34136;51.022;7.082;2022-09-09T04:19:12;17.40;3.50
48328;DHT22;34136;51.022;7.082;2022-09-09T04:22:00;17.40;3.80
48328;DHT22;34136;51.022;7.082;2022-09-09T04:24:46;17.40;3.90
48328;DHT22;34136;51.022;7.082;2022-09-09T04:27:33;17.40;3.50
48328;DHT22;34136;51.022;7.082;2022-09-09T04:30:20;17.40;3.70
48328;DHT22;34136;51.022;7.082;2022-09-09T04:33:07;17.40;3.40
48328;DHT22;34136;51.022;7.082;2022-09-09T04:35:54;17.50;3.40
48328;DHT22;34136;51.022;7.082;2022-09-09T04:38:43;17.40;3.40
48328;DHT22;34136;51.022;7.082;2022-09-09T04:41:29;17.50;3.30
48328;DHT22;34136;51.022;7.082;2022-09-09T04:44:15;17.50;3.20
48328;DHT22;34136;51.022;7.082;2022-09-09T04:47:02;17.50;3.10
48328;DHT22;34136;51.022;7.082;2022-09-09T04:49:48;17.50;3.10
48328;DHT22;34136;51.022;7.082;2022-09-09T04:52:35;17.50;3.20
48328;DHT22;34136;51.022;7.082;2022-09-09T04:55:21;17.50;3.20
48328;DHT22;34136;51.022;7.082;2022-09-09T04:58:08;17.50;3.20
48328;DHT22;34136;51.022;7.082;2022-09-09T05:00:54;17.40;3.30
48328;DHT22;34136;51.022;7.082;2022-09-09T05:03:41;17.50;3.30
48328;DHT22;34136;51.022;7.082;2022-09-09T05:06:30;17.50;3.20
48328;DHT22;34136;51.022;7.082;2022-09-09T05:09:19;17.50;3.30
48328;DHT22;34136;51.022;7.082;2022-09-09T05:12:06;17.50;3.50
48328;DHT22;34136;51.022;7.082;2022-09-09T05:14:55;17.50;3.40
48328;DHT22;34136;51.022;7.082;2022-09-09T05:17:42;17.50;3.40
48328;DHT22;34136;51.022;7.082;2022-09-09T05:20:29;17.50;3.20
48328;DHT22;34136;51.022;7.082;2022-09-09T05:23:15;17.50;3.20
48328;DHT22;34136;51.022;7.082;2022-09-09T05:26:03;17.60;3.20
48328;DHT22;34136;51.022;7.082;2022-09-09T05:28:49;17.50;3.80
48328;DHT22;34136;51.022;7.082;2022-09-09T05:31:36;17.40;4.00
48328;DHT22;34136;51.022;7.082;2022-09-09T05:34:28;17.40;4.80
48328;DHT22;34136;51.022;7.082;2022-09-09T05:37:15;17.40;5.50
48328;DHT22;34136;51.022;7.082;2022-09-09T05:40:02;17.40;6.50
48328;DHT22;34136;51.022;7.082;2022-09-09T05:42:48;17.30;6.70
48328;DHT22;34136;51.022;7.082;2022-09-09T05:45:35;17.20;7.90
48328;DHT22;34136;51.022;7.082;2022-09-09T05:48:22;17.20;8.30
48328;DHT22;34136;51.022;7.082;2022-09-09T05:51:12;17.20;8.60
48328;DHT22;34136;51.022;7.082;2022-09-09T05:53:58;17.20;9.40
48328;DHT22;34136;51.022;7.082;2022-09-09T05:56:46;17.20;9.60
48328;DHT22;34136;51.022;7.082;2022-09-09T05:59:33;17.10;9.50
48328;DHT22;34136;51.022;7.082;2022-09-09T06:02:20;17.20;9.40
48328;DHT22;34136;51.022;7.082;2022-09-09T06:05:07;17.10;9.30
48328;DHT22;34136;51.022;7.082;2022-09-09T06:07:53;17.00;9.40
48328;DHT22;34136;51.022;7.082;2022-09-09T06:10:40;17.10;9.60
48328;DHT22;34136;51.022;7.082;2022-09-09T06:13:26;17.10;9.40
48328;DHT22;34136;51.022;7.082;2022-09-09T06:16:15;17.10;9.70
48328;DHT22;34136;51.022;7.082;2022-09-09T06:19:02;17.10;9.70
48328;DHT22;34136;51.022;7.082;2022-09-09T06:21:50;17.10;8.80
48328;DHT22;34136;51.022;7.082;2022-09-09T06:24:36;17.10;8.30
48328;DHT22;34136;51.022;7.082;2022-09-09T06:27:23;17.20;8.70
48328;DHT22;34136;51.022;7.082;2022-09-09T06:30:10;17.20;8.00
48328;DHT22;34136;51.022;7.082;2022-09-09T06:32:57;17.20;8.20
48328;DHT22;34136;51.022;7.082;2022-09-09T06:35:51;17.20;7.90
48328;DHT22;34136;51.022;7.082;2022-09-09T06:38:41;17.20;8.20
48328;DHT22;34136;51.022;7.082;2022-09-09T06:41:29;17.20;8.40
48328;DHT22;34136;51.022;7.082;2022-09-09T06:44:17;17.30;7.90
48328;DHT22;34136;51.022;7.082;2022-09-09T06:47:04;17.30;7.60
48328;DHT22;34136;51.022;7.082;2022-09-09T06:49:51;17.30;7.70
48328;DHT22;34136;51.022;7.082;2022-09-09T06:52:38;17.40;6.30
48328;DHT22;34136;51.022;7.082;2022-09-09T06:55:24;17.40;6.10
48328;DHT22;34136;51.022;7.082;2022-09-09T06:58:11;17.50;6.00
48328;DHT22;34136;51.022;7.082;2022-09-09T07:01:07;17.70;5.40
48328;DHT22;34136;51.022;7.082;2022-09-09T07:03:56;17.90;5.00
48328;DHT22;34136;51.022;7.082;2022-09-09T07:06:44;18.10;3.60
48328;DHT22;34136;51.022;7.082;2022-09-09T07:09:34;18.10;2.70
48328;DHT22;34136;51.022;7.082;2022-09-09T07:12:22;18.20;1.80
48328;DHT22;34136;51.022;7.082;2022-09-09T07:15:14;18.40;1.20
48328;DHT22;34136;51.022;7.082;2022-09-09T07:18:03;18.50;1.00
48328;DHT22;34136;51.022;7.082;2022-09-09T07:20:54;18.70;1.00
48328;DHT22;34136;51.022;7.082;2022-09-09T07:23:41;18.80;1.00
48328;DHT22;34136;51.022;7.082;2022-09-09T07:26:29;18.90;1.00
48328;DHT22;34136;51.022;7.082;2022-09-09T07:29:17;19.10;1.00
48328;DHT22;34136;51.022;7.082;2022-09-09T07:32:04;19.20;1.00
48328;DHT22;34136;51.022;7.082;2022-09-09T07:34:54;19.30;1.00
48328;DHT22;34136;51.022;7.082;2022-09-09T07:37:41;19.40;1.00
48328;DHT22;34136;51.022;7.082;2022-09-09T07:40:27;19.50;1.00
48328;DHT22;34136;51.022;7.082;2022-09-09T07:43:14;19.40;1.00
48328;DHT22;34136;51.022;7.082;2022-09-09T07:46:00;19.50;1.00
48328;DHT22;34136;51.022;7.082;2022-09-09T07:48:50;19.40;1.00
48328;DHT22;34136;51.022;7.082;2022-09-09T07:51:39;19.60;1.00
48328;DHT22;34136;51.022;7.082;2022-09-09T07:54:31;19.60;1.00
48328;DHT22;34136;51.022;7.082;2022-09-09T07:57:19;19.60;1.00
48328;DHT22;34136;51.022;7.082;2022-09-09T08:00:07;19.60;1.00
48328;DHT22;34136;51.022;7.082;2022-09-09T08:03:03;19.80;1.00
48328;DHT22;34136;51.022;7.082;2022-09-09T08:05:50;19.90;1.00
48328;DHT22;34136;51.022;7.082;2022-09-09T08:08:36;19.90;1.00
48328;DHT22;34136;51.022;7.082;2022-09-09T08:11:24;20.10;1.00
48328;DHT22;34136;51.022;7.082;2022-09-09T08:14:11;20.10;1.00
48328;DHT22;34136;51.022;7.082;2022-09-09T08:16:58;20.20;1.00
48328;DHT22;34136;51.022;7.082;2022-09-09T08:19:46;20.30;1.00
48328;DHT22;34136;51.022;7.082;2022-09-09T08:22:37;20.20;1.00
48328;DHT22;34136;51.022;7.082;2022-09-09T08:25:24;20.30;1.00
48328;DHT22;34136;51.022;7.082;2022-09-09T08:28:11;20.40;1.00
48328;DHT22;34136;51.022;7.082;2022-09-09T08:33:55;20.50;1.00
48328;DHT22;34136;51.022;7.082;2022-09-09T08:36:44;20.40;1.00
48328;DHT22;34136;51.022;7.082;2022-09-09T08:39:31;20.30;1.00
48328;DHT22;34136;51.022;7.082;2022-09-09T08:42:41;20.40;1.00
48328;DHT22;34136;51.022;7.082;2022-09-09T08:46:00;20.20;1.00
48328;DHT22;34136;51.022;7.082;2022-09-09T08:48:57;20.10;1.00
48328;DHT22;34136;51.022;7.082;2022-09-09T08:51:44;20.10;1.00
48328;DHT22;34136;51.022;7.082;2022-09-09T08:54:33;20.30;1.00
48328;DHT22;34136;51.022;7.082;2022-09-09T08:57:28;20.50;1.00
48328;DHT22;34136;51.022;7.082;2022-09-09T09:00:15;20.40;1.00
48328;DHT22;34136;51.022;7.082;2022-09-09T09:06:26;20.50;1.00
48328;DHT22;34136;51.022;7.082;2022-09-09T09:12:41;20.40;1.00
48328;DHT22;34136;51.022;7.082;2022-09-09T09:15:36;20.30;1.00
48328;DHT22;34136;51.022;7.082;2022-09-09T09:18:24;20.10;1.00
48328;DHT22;34136;51.022;7.082;2022-09-09T09:21:19;20.20;1.00
48328;DHT22;34136;51.022;7.082;2022-09-09T09:24:19;20.30;1.00
48328;DHT22;34136;51.022;7.082;2022-09-09T09:27:15;20.70;1.00
48328;DHT22;34136;51.022;7.082;2022-09-09T09:30:17;20.90;1.00
48328;DHT22;34136;51.022;7.082;2022-09-09T09:33:24;21.00;1.00
48328;DHT22;34136;51.022;7.082;2022-09-09T09:36:13;20.90;1.00
48328;DHT22;34136;51.022;7.082;2022-09-09T09:39:03;20.90;1.00
48328;DHT22;34136;51.022;7.082;2022-09-09T09:41:52;20.70;1.00
48328;DHT22;34136;51.022;7.082;2022-09-09T09:44:40;20.70;1.00
48328;DHT22;34136;51.022;7.082;2022-09-09T09:47:32;20.50;1.00
48328;DHT22;34136;51.022;7.082;2022-09-09T09:50:27;20.40;1.00
48328;DHT22;34136;51.022;7.082;2022-09-09T09:53:33;20.30;1.00
48328;DHT22;34136;51.022;7.082;2022-09-09T09:56:27;20.50;1.00
48328;DHT22;34136;51.022;7.082;2022-09-09T09:59:22;20.50;1.00
48328;DHT22;34136;51.022;7.082;2022-09-09T10:02:21;20.50;1.00
48328;DHT22;34136;51.022;7.082;2022-09-09T10:08:15;20.60;1.00
48328;DHT22;34136;51.022;7.082;2022-09-09T10:14:37;20.80;1.00
48328;DHT22;34136;51.022;7.082;2022-09-09T10:21:02;21.00;1.00
48328;DHT22;34136;51.022;7.082;2022-09-09T10:24:23;21.00;1.00
48328;DHT22;34136;51.022;7.082;2022-09-09T10:30:40;21.40;1.00
48328;DHT22;34136;51.022;7.082;2022-09-09T10:36:24;20.90;1.00
48328;DHT22;34136;51.022;7.082;2022-09-09T10:42:25;20.80;1.00
48328;DHT22;34136;51.022;7.082;2022-09-09T10:46:21;20.70;1.00
48328;DHT22;34136;51.022;7.082;2022-09-09T10:57:46;20.90;1.00
48328;DHT22;34136;51.022;7.082;2022-09-09T11:00:38;20.80;1.00
48328;DHT22;34136;51.022;7.082;2022-09-09T11:03:27;21.00;1.00
48328;DHT22;34136;51.022;7.082;2022-09-09T11:06:20;21.20;1.00
48328;DHT22;34136;51.022;7.082;2022-09-09T11:09:14;21.30;1.00
48328;DHT22;34136;51.022;7.082;2022-09-09T11:12:01;21.30;1.00
48328;DHT22;34136;51.022;7.082;2022-09-09T11:14:55;21.30;1.00
48328;DHT22;34136;51.022;7.082;2022-09-09T11:17:50;21.50;1.00
48328;DHT22;34136;51.022;7.082;2022-09-09T11:20:37;21.60;1.00
48328;DHT22;34136;51.022;7.082;2022-09-09T11:23:52;21.70;1.00
48328;DHT22;34136;51.022;7.082;2022-09-09T11:26:46;21.60;1.00
48328;DHT22;34136;51.022;7.082;2022-09-09T11:30:10;21.60;1.00
48328;DHT22;34136;51.022;7.082;2022-09-09T11:42:20;21.60;1.00
48328;DHT22;34136;51.022;7.082;2022-09-09T11:45:26;21.50;1.00
48328;DHT22;34136;51.022;7.082;2022-09-09T11:48:28;21.50;1.00
48328;DHT22;34136;51.022;7.082;2022-09-09T11:54:31;21.50;1.00
48328;DHT22;34136;51.022;7.082;2022-09-09T11:57:33;21.50;1.00
48328;DHT22;34136;51.022;7.082;2022-09-09T12:00:41;21.70;1.00
48328;DHT22;34136;51.022;7.082;2022-09-09T12:03:47;21.60;1.00
48328;DHT22;34136;51.022;7.082;2022-09-09T12:06:53;21.70;1.00
48328;DHT22;34136;51.022;7.082;2022-09-09T12:09:52;21.70;1.00
48328;DHT22;34136;51.022;7.082;2022-09-09T12:12:39;21.60;1.00
48328;DHT22;34136;51.022;7.082;2022-09-09T12:15:27;21.60;1.00
48328;DHT22;34136;51.022;7.082;2022-09-09T12:18:34;21.60;1.00
48328;DHT22;34136;51.022;7.082;2022-09-09T12:27:42;21.40;1.00
48328;DHT22;34136;51.022;7.082;2022-09-09T12:31:02;21.40;1.00
48328;DHT22;34136;51.022;7.082;2022-09-09T12:33:54;21.40;1.00
48328;DHT22;34136;51.022;7.082;2022-09-09T12:36:41;21.50;1.00
48328;DHT22;34136;51.022;7.082;2022-09-09T12:39:35;21.50;1.00
48328;DHT22;34136;51.022;7.082;2022-09-09T12:42:23;21.50;1.00
48328;DHT22;34136;51.022;7.082;2022-09-09T12:45:24;21.70;1.00
48328;DHT22;34136;51.022;7.082;2022-09-09T12:48:11;21.70;1.00
48328;DHT22;34136;51.022;7.082;2022-09-09T12:50:58;21.70;1.00
48328;DHT22;34136;51.022;7.082;2022-09-09T12:53:45;21.80;1.00
48328;DHT22;34136;51.022;7.082;2022-09-09T12:56:32;21.70;1.00
48328;DHT22;34136;51.022;7.082;2022-09-09T12:59:34;21.50;1.00
48328;DHT22;34136;51.022;7.082;2022-09-09T13:02:25;21.30;1.00
48328;DHT22;34136;51.022;7.082;2022-09-09T13:05:20;21.20;1.00
48328;DHT22;34136;51.022;7.082;2022-09-09T13:08:12;21.10;1.00
48328;DHT22;34136;51.022;7.082;2022-09-09T13:11:03;21.20;1.00
48328;DHT22;34136;51.022;7.082;2022-09-09T13:13:55;21.40;1.00
48328;DHT22;34136;51.022;7.082;2022-09-09T13:16:42;21.50;1.00
48328;DHT22;34136;51.022;7.082;2022-09-09T13:19:33;21.50;1.00
48328;DHT22;34136;51.022;7.082;2022-09-09T13:22:36;21.50;1.00
48328;DHT22;34136;51.022;7.082;2022-09-09T13:25:27;21.60;1.00
48328;DHT22;34136;51.022;7.082;2022-09-09T13:28:23;21.50;1.00
48328;DHT22;34136;51.022;7.082;2022-09-09T13:31:30;21.50;1.00
48328;DHT22;34136;51.022;7.082;2022-09-09T13:34:30;21.40;1.00
48328;DHT22;34136;51.022;7.082;2022-09-09T13:37:35;21.40;1.00
48328;DHT22;34136;51.022;7.082;2022-09-09T13:40:23;21.50;1.00
48328;DHT22;34136;51.022;7.082;2022-09-09T13:43:20;21.60;1.00
48328;DHT22;34136;51.022;7.082;2022-09-09T13:46:36;21.50;1.00
48328;DHT22;34136;51.022;7.082;2022-09-09T13:49:23;21.40;1.00
48328;DHT22;34136;51.022;7.082;2022-09-09T13:52:17;21.60;1.00
48328;DHT22;34136;51.022;7.082;2022-09-09T13:55:04;21.70;1.00
48328;DHT22;34136;51.022;7.082;2022-09-09T13:58:01;21.70;1.00
48328;DHT22;34136;51.022;7.082;2022-09-09T14:00:48;21.80;1.00
48328;DHT22;34136;51.022;7.082;2022-09-09T14:03:34;21.70;1.00
48328;DHT22;34136;51.022;7.082;2022-09-09T14:06:21;21.70;1.00
48328;DHT22;34136;51.022;7.082;2022-09-09T14:09:12;21.80;1.00
48328;DHT22;34136;51.022;7.082;2022-09-09T14:11:58;22.10;1.00
48328;DHT22;34136;51.022;7.082;2022-09-09T14:14:44;22.20;1.00
48328;DHT22;34136;51.022;7.082;2022-09-09T14:17:56;22.20;1.00
48328;DHT22;34136;51.022;7.082;2022-09-09T14:20:49;22.20;1.00
48328;DHT22;34136;51.022;7.082;2022-09-09T14:23:35;22.10;1.00
48328;DHT22;34136;51.022;7.082;2022-09-09T14:26:22;22.10;1.00
48328;DHT22;34136;51.022;7.082;2022-09-09T14:29:08;21.90;1.00
48328;DHT22;34136;51.022;7.082;2022-09-09T14:31:55;21.90;1.00
48328;DHT22;34136;51.022;7.082;2022-09-09T14:34:41;21.70;1.00
48328;DHT22;34136;51.022;7.082;2022-09-09T14:37:27;21.60;1.00
48328;DHT22;34136;51.022;7.082;2022-09-09T14:40:14;21.50;1.00
48328;DHT22;34136;51.022;7.082;2022-09-09T14:43:00;21.30;1.00
48328;DHT22;34136;51.022;7.082;2022-09-09T14:45:47;21.20;1.00
48328;DHT22;34136;51.022;7.082;2022-09-09T14:48:33;20.90;1.00
48328;DHT22;34136;51.022;7.082;2022-09-09T14:51:22;20.60;1.00
48328;DHT22;34136;51.022;7.082;2022-09-09T14:54:09;20.30;1.00
48328;DHT22;34136;51.022;7.082;2022-09-09T14:56:55;20.10;1.00
48328;DHT22;34136;51.022;7.082;2022-09-09T14:59:41;19.90;1.00
48328;DHT22;34136;51.022;7.082;2022-09-09T15:02:28;19.70;1.00
48328;DHT22;34136;51.022;7.082;2022-09-09T15:05:14;19.70;1.00
48328;DHT22;34136;51.022;7.082;2022-09-09T15:08:00;19.60;1.00
48328;DHT22;34136;51.022;7.082;2022-09-09T15:10:47;19.70;1.00
48328;DHT22;34136;51.022;7.082;2022-09-09T15:13:36;19.70;1.00
48328;DHT22;34136;51.022;7.082;2022-09-09T15:16:24;19.90;1.00
48328;DHT22;34136;51.022;7.082;2022-09-09T15:19:11;20.00;1.00
48328;DHT22;34136;51.022;7.082;2022-09-09T15:21:57;20.20;1.00
48328;DHT22;34136;51.022;7.082;2022-09-09T15:24:44;20.30;1.00
48328;DHT22;34136;51.022;7.082;2022-09-09T15:27:30;20.50;1.00
48328;DHT22;34136;51.022;7.082;2022-09-09T15:30:17;20.50;1.00
48328;DHT22;34136;51.022;7.082;2022-09-09T15:33:08;20.60;1.00
48328;DHT22;34136;51.022;7.082;2022-09-09T15:35:54;20.50;1.00
48328;DHT22;34136;51.022;7.082;2022-09-09T15:38:40;20.60;1.00
48328;DHT22;34136;51.022;7.082;2022-09-09T15:41:28;20.70;1.00
48328;DHT22;34136;51.022;7.082;2022-09-09T15:44:15;20.40;1.00
48328;DHT22;34136;51.022;7.082;2022-09-09T15:47:02;20.40;1.00
48328;DHT22;34136;51.022;7.082;2022-09-09T15:49:48;20.40;1.00
48328;DHT22;34136;51.022;7.082;2022-09-09T15:52:34;20.40;1.00
48328;DHT22;34136;51.022;7.082;2022-09-09T15:55:20;20.50;1.00
48328;DHT22;34136;51.022;7.082;2022-09-09T15:58:06;20.50;1.00
48328;DHT22;34136;51.022;7.082;2022-09-09T16:00:52;20.50;1.00
48328;DHT22;34136;51.022;7.082;2022-09-09T16:03:40;20.50;1.00
48328;DHT22;34136;51.022;7.082;2022-09-09T16:06:28;20.50;1.00
48328;DHT22;34136;51.022;7.082;2022-09-09T16:09:15;20.50;1.00
48328;DHT22;34136;51.022;7.082;2022-09-09T16:12:02;20.50;1.00
48328;DHT22;34136;51.022;7.082;2022-09-09T16:14:49;20.40;1.00
48328;DHT22;34136;51.022;7.082;2022-09-09T16:17:35;20.30;1.00
48328;DHT22;34136;51.022;7.082;2022-09-09T16:20:21;19.80;2.20
48328;DHT22;34136;51.022;7.082;2022-09-09T16:23:08;19.60;1.00
48328;DHT22;34136;51.022;7.082;2022-09-09T16:25:57;19.50;1.00
48328;DHT22;34136;51.022;7.082;2022-09-09T16:28:44;19.40;1.00
48328;DHT22;34136;51.022;7.082;2022-09-09T16:31:31;19.40;1.00
48328;DHT22;34136;51.022;7.082;2022-09-09T16:34:18;19.30;1.00
48328;DHT22;34136;51.022;7.082;2022-09-09T16:37:04;19.30;1.00
48328;DHT22;34136;51.022;7.082;2022-09-09T16:39:50;19.30;1.00
48328;DHT22;34136;51.022;7.082;2022-09-09T16:42:37;19.20;1.00
48328;DHT22;34136;51.022;7.082;2022-09-09T16:45:23;19.20;1.00
48328;DHT22;34136;51.022;7.082;2022-09-09T16:48:10;19.20;1.00
48328;DHT22;34136;51.022;7.082;2022-09-09T16:51:02;19.20;1.00
48328;DHT22;34136;51.022;7.082;2022-09-09T16:53:50;19.20;1.00
48328;DHT22;34136;51.022;7.082;2022-09-09T16:56:39;19.20;1.00
48328;DHT22;34136;51.022;7.082;2022-09-09T16:59:25;19.30;1.00
48328;DHT22;34136;51.022;7.082;2022-09-09T17:02:12;19.30;1.00
48328;DHT22;34136;51.022;7.082;2022-09-09T17:04:58;19.30;1.00
48328;DHT22;34136;51.022;7.082;2022-09-09T17:07:44;19.10;1.00
48328;DHT22;34136;51.022;7.082;2022-09-09T17:10:31;19.20;1.00
48328;DHT22;34136;51.022;7.082;2022-09-09T17:13:17;19.20;1.00
48328;DHT22;34136;51.022;7.082;2022-09-09T17:16:04;19.20;1.00
48328;DHT22;34136;51.022;7.082;2022-09-09T17:18:51;19.20;1.00
48328;DHT22;34136;51.022;7.082;2022-09-09T17:21:38;19.20;1.00
48328;DHT22;34136;51.022;7.082;2022-09-09T17:24:28;19.20;1.00
48328;DHT22;34136;51.022;7.082;2022-09-09T17:27:15;18.90;1.10
48328;DHT22;34136;51.022;7.082;2022-09-09T17:30:01;18.80;1.00
48328;DHT22;34136;51.022;7.082;2022-09-09T17:32:47;18.70;1.70
48328;DHT22;34136;51.022;7.082;2022-09-09T17:35:34;18.60;2.00
48328;DHT22;34136;51.022;7.082;2022-09-09T17:38:25;18.70;1.70
48328;DHT22;34136;51.022;7.082;2022-09-09T17:41:21;18.70;1.60
48328;DHT22;34136;51.022;7.082;2022-09-09T17:44:08;18.60;2.20
48328;DHT22;34136;51.022;7.082;2022-09-09T17:46:55;18.60;2.50
48328;DHT22;34136;51.022;7.082;2022-09-09T17:49:41;18.60;2.40
48328;DHT22;34136;51.022;7.082;2022-09-09T17:52:27;18.50;2.50
48328;DHT22;34136;51.022;7.082;2022-09-09T17:55:13;18.50;3.10
48328;DHT22;34136;51.022;7.082;2022-09-09T17:58:00;18.60;3.20
48328;DHT22;34136;51.022;7.082;2022-09-09T18:00:46;18.50;3.60
48328;DHT22;34136;51.022;7.082;2022-09-09T18:03:38;18.60;3.60
48328;DHT22;34136;51.022;7.082;2022-09-09T18:06:27;18.60;3.10
48328;DHT22;34136;51.022;7.082;2022-09-09T18:09:19;18.50;3.90
48328;DHT22;34136;51.022;7.082;2022-09-09T18:12:06;18.50;4.50
48328;DHT22;34136;51.022;7.082;2022-09-09T18:14:52;18.40;4.60
48328;DHT22;34136;51.022;7.082;2022-09-09T18:17:38;18.40;4.90
48328;DHT22;34136;51.022;7.082;2022-09-09T18:20:25;18.40;4.50
48328;DHT22;34136;51.022;7.082;2022-09-09T18:23:11;18.40;5.40
48328;DHT22;34136;51.022;7.082;2022-09-09T18:25:57;18.30;6.00
48328;DHT22;34136;51.022;7.082;2022-09-09T18:28:47;18.30;6.00
48328;DHT22;34136;51.022;7.082;2022-09-09T18:31:35;18.40;5.80
48328;DHT22;34136;51.022;7.082;2022-09-09T18:34:22;18.30;6.30
48328;DHT22;34136;51.022;7.082;2022-09-09T18:37:09;18.40;6.10
48328;DHT22;34136;51.022;7.082;2022-09-09T18:39:55;18.40;5.80
48328;DHT22;34136;51.022;7.082;2022-09-09T18:42:42;18.40;5.80
48328;DHT22;34136;51.022;7.082;2022-09-09T18:45:28;18.30;6.30
48328;DHT22;34136;51.022;7.082;2022-09-09T18:48:14;18.40;6.70
48328;DHT22;34136;51.022;7.082;2022-09-09T18:51:05;18.20;7.10
48328;DHT22;34136;51.022;7.082;2022-09-09T18:53:54;18.30;7.70
48328;DHT22;34136;51.022;7.082;2022-09-09T18:56:42;18.20;7.70
48328;DHT22;34136;51.022;7.082;2022-09-09T18:59:28;18.20;8.40
48328;DHT22;34136;51.022;7.082;2022-09-09T19:02:15;18.10;8.60
48328;DHT22;34136;51.022;7.082;2022-09-09T19:05:01;18.10;9.40
48328;DHT22;34136;51.022;7.082;2022-09-09T19:07:47;18.00;9.40
48328;DHT22;34136;51.022;7.082;2022-09-09T19:10:37;18.00;9.70
48328;DHT22;34136;51.022;7.082;2022-09-09T19:13:23;18.00;9.70
48328;DHT22;34136;51.022;7.082;2022-09-09T19:16:12;17.90;9.70
48328;DHT22;34136;51.022;7.082;2022-09-09T19:19:00;17.90;9.80
48328;DHT22;34136;51.022;7.082;2022-09-09T19:21:52;17.90;9.20
48328;DHT22;34136;51.022;7.082;2022-09-09T19:24:40;17.90;9.30
48328;DHT22;34136;51.022;7.082;2022-09-09T19:27:26;17.90;8.80
48328;DHT22;34136;51.022;7.082;2022-09-09T19:30:13;17.90;8.30
48328;DHT22;34136;51.022;7.082;2022-09-09T19:32:59;17.90;7.80
48328;DHT22;34136;51.022;7.082;2022-09-09T19:35:45;17.80;8.50
48328;DHT22;34136;51.022;7.082;2022-09-09T19:38:31;17.80;8.30